sensor_id;sensor_type;location;lat;lon;timestamp;pressure;altitude;pressure_sealevel;temperature;humidity
50867;BME280;36839;51.946;21.002;2022-10-20T00:02:01;101150.09;;;2.58;100.00
50867;BME280;36839;51.946;21.002;2022-10-20T00:04:32;101143.80;;;2.57;100.00
50867;BME280;36839;51.946;21.002;2022-10-20T00:06:59;101147.93;;;2.53;100.00
50867;BME280;36839;51.946;21.002;2022-10-20T00:09:27;101147.93;;;2.53;100.00
50867;BME280;36839;51.946;21.002;2022-10-20T00:11:57;101155.74;;;2.56;100.00
50867;BME280;36839;51.946;21.002;2022-10-20T00:14:24;101155.34;;;2.60;100.00
50867;BME280;36839;51.946;21.002;2022-10-20T00:16:52;101155.34;;;2.60;100.00
50867;BME280;36839;51.946;21.002;2022-10-20T00:19:19;101163.00;;;2.60;100.00
50867;BME280;36839;51.946;21.002;2022-10-20T00:21:48;101163.00;;;2.60;100.00
50867;BME280;36839;51.946;21.002;2022-10-20T00:24:18;101161.12;;;2.61;100.00
50867;BME280;36839;51.946;21.002;2022-10-20T00:26:48;101161.12;;;2.61;100.00
50867;BME280;36839;51.946;21.002;2022-10-20T00:29:18;101161.20;;;2.56;100.00
50867;BME280;36839;51.946;21.002;2022-10-20T00:31:44;101154.38;;;2.56;100.00
50867;BME280;36839;51.946;21.002;2022-10-20T00:34:12;101158.47;;;2.56;100.00
50867;BME280;36839;51.946;21.002;2022-10-20T00:36:42;101168.53;;;2.56;100.00
50867;BME280;36839;51.946;21.002;2022-10-20T00:39:09;101158.12;;;2.55;100.00
50867;BME280;36839;51.946;21.002;2022-10-20T00:41:37;101160.52;;;2.54;100.00
50867;BME280;36839;51.946;21.002;2022-10-20T00:49:45;101156.31;;;2.52;100.00
50867;BME280;36839;51.946;21.002;2022-10-20T00:52:12;101155.67;;;2.39;100.00
50867;BME280;36839;51.946;21.002;2022-10-20T00:54:42;101158.92;;;2.39;100.00
50867;BME280;36839;51.946;21.002;2022-10-20T00:57:14;101161.84;;;2.37;100.00
50867;BME280;36839;51.946;21.002;2022-10-20T00:59:41;101161.16;;;2.35;100.00
50867;BME280;36839;51.946;21.002;2022-10-20T01:02:09;101156.83;;;2.30;100.00
50867;BME280;36839;51.946;21.002;2022-10-20T01:04:36;101158.75;;;2.25;100.00
50867;BME280;36839;51.946;21.002;2022-10-20T01:07:03;101154.42;;;2.20;100.00
50867;BME280;36839;51.946;21.002;2022-10-20T01:09:31;101154.42;;;2.20;100.00
50867;BME280;36839;51.946;21.002;2022-10-20T01:12:21;101155.83;;;2.16;100.00
50867;BME280;36839;51.946;21.002;2022-10-20T01:15:08;101155.83;;;2.16;100.00
50867;BME280;36839;51.946;21.002;2022-10-20T01:18:04;101153.56;;;2.09;100.00
50867;BME280;36839;51.946;21.002;2022-10-20T01:20:48;101158.66;;;2.08;100.00
50867;BME280;36839;51.946;21.002;2022-10-20T01:29:04;101152.61;;;1.91;100.00
50867;BME280;36839;51.946;21.002;2022-10-20T01:31:41;101149.60;;;1.86;100.00
50867;BME280;36839;51.946;21.002;2022-10-20T01:34:13;101157.45;;;1.85;100.00
50867;BME280;36839;51.946;21.002;2022-10-20T01:36:48;101157.45;;;1.85;100.00
50867;BME280;36839;51.946;21.002;2022-10-20T01:39:48;101157.00;;;1.82;100.00
50867;BME280;36839;51.946;21.002;2022-10-20T01:42:22;101157.00;;;1.82;100.00
50867;BME280;36839;51.946;21.002;2022-10-20T01:44:55;101160.57;;;1.82;100.00
50867;BME280;36839;51.946;21.002;2022-10-20T01:47:21;101160.77;;;1.81;100.00
50867;BME280;36839;51.946;21.002;2022-10-20T01:49:51;101155.67;;;1.78;100.00
50867;BME280;36839;51.946;21.002;2022-10-20T01:52:22;101153.86;;;1.74;100.00
50867;BME280;36839;51.946;21.002;2022-10-20T01:54:51;101154.80;;;1.66;100.00
50867;BME280;36839;51.946;21.002;2022-10-20T02:00:12;101154.96;;;1.54;100.00
50867;BME280;36839;51.946;21.002;2022-10-20T02:02:51;101153.50;;;1.48;100.00
50867;BME280;36839;51.946;21.002;2022-10-20T02:10:45;101160.82;;;1.47;100.00
50867;BME280;36839;51.946;21.002;2022-10-20T02:13:16;101161.02;;;1.46;100.00
50867;BME280;36839;51.946;21.002;2022-10-20T02:15:50;101161.20;;;1.44;100.00
50867;BME280;36839;51.946;21.002;2022-10-20T02:18:26;101150.00;;;1.43;100.00
50867;BME280;36839;51.946;21.002;2022-10-20T02:20:56;101153.72;;;1.42;100.00
50867;BME280;36839;51.946;21.002;2022-10-20T02:23:26;101153.72;;;1.42;100.00
50867;BME280;36839;51.946;21.002;2022-10-20T02:25:58;101156.37;;;1.35;100.00
50867;BME280;36839;51.946;21.002;2022-10-20T02:28:27;101152.31;;;1.31;100.00
50867;BME280;36839;51.946;21.002;2022-10-20T02:30:57;101149.45;;;1.29;100.00
50867;BME280;36839;51.946;21.002;2022-10-20T02:33:25;101150.88;;;1.25;100.00
50867;BME280;36839;51.946;21.002;2022-10-20T02:35:57;101150.88;;;1.25;100.00
50867;BME280;36839;51.946;21.002;2022-10-20T02:38:26;101148.13;;;1.10;100.00
50867;BME280;36839;51.946;21.002;2022-10-20T02:40:54;101148.13;;;1.10;100.00
50867;BME280;36839;51.946;21.002;2022-10-20T02:43:23;101144.51;;;0.99;100.00
50867;BME280;36839;51.946;21.002;2022-10-20T02:45:53;101141.33;;;0.95;100.00
50867;BME280;36839;51.946;21.002;2022-10-20T02:48:20;101144.38;;;0.96;100.00
50867;BME280;36839;51.946;21.002;2022-10-20T02:50:47;101141.98;;;0.97;100.00
50867;BME280;36839;51.946;21.002;2022-10-20T02:53:18;101141.98;;;0.97;100.00
50867;BME280;36839;51.946;21.002;2022-10-20T02:55:49;101142.69;;;0.95;100.00
50867;BME280;36839;51.946;21.002;2022-10-20T02:58:17;101139.00;;;0.88;100.00
50867;BME280;36839;51.946;21.002;2022-10-20T03:00:43;101156.89;;;0.82;100.00
50867;BME280;36839;51.946;21.002;2022-10-20T03:03:11;101157.78;;;0.79;100.00
50867;BME280;36839;51.946;21.002;2022-10-20T03:05:39;101157.78;;;0.79;100.00
50867;BME280;36839;51.946;21.002;2022-10-20T03:08:06;101156.11;;;0.74;100.00
50867;BME280;36839;51.946;21.002;2022-10-20T03:10:38;101156.11;;;0.74;100.00
50867;BME280;36839;51.946;21.002;2022-10-20T03:13:04;101159.35;;;0.73;100.00
50867;BME280;36839;51.946;21.002;2022-10-20T03:15:33;101155.13;;;0.71;100.00
50867;BME280;36839;51.946;21.002;2022-10-20T03:18:02;101167.24;;;0.64;100.00
50867;BME280;36839;51.946;21.002;2022-10-20T03:20:28;101160.16;;;0.59;100.00
50867;BME280;36839;51.946;21.002;2022-10-20T03:22:57;101160.31;;;0.62;100.00
50867;BME280;36839;51.946;21.002;2022-10-20T03:25:23;101160.31;;;0.62;100.00
50867;BME280;36839;51.946;21.002;2022-10-20T03:27:53;101165.27;;;0.58;100.00
50867;BME280;36839;51.946;21.002;2022-10-20T03:30:23;101165.27;;;0.58;100.00
50867;BME280;36839;51.946;21.002;2022-10-20T03:32:50;101163.64;;;0.49;100.00
50867;BME280;36839;51.946;21.002;2022-10-20T03:35:18;101169.23;;;0.47;100.00
50867;BME280;36839;51.946;21.002;2022-10-20T03:37:45;101169.23;;;0.47;100.00
50867;BME280;36839;51.946;21.002;2022-10-20T03:40:12;101170.83;;;0.42;100.00
50867;BME280;36839;51.946;21.002;2022-10-20T03:42:38;101176.27;;;0.38;100.00
50867;BME280;36839;51.946;21.002;2022-10-20T03:45:07;101176.27;;;0.38;100.00
50867;BME280;36839;51.946;21.002;2022-10-20T03:47:35;101173.55;;;0.38;100.00
50867;BME280;36839;51.946;21.002;2022-10-20T03:50:04;101177.30;;;0.37;100.00
50867;BME280;36839;51.946;21.002;2022-10-20T03:52:33;101177.67;;;0.34;100.00
50867;BME280;36839;51.946;21.002;2022-10-20T03:54:59;101178.55;;;0.30;100.00
50867;BME280;36839;51.946;21.002;2022-10-20T03:57:28;101180.25;;;0.27;100.00
50867;BME280;36839;51.946;21.002;2022-10-20T03:59:54;101180.25;;;0.27;100.00
50867;BME280;36839;51.946;21.002;2022-10-20T04:02:33;101174.02;;;0.18;100.00
50867;BME280;36839;51.946;21.002;2022-10-20T04:04:59;101189.48;;;0.18;100.00
50867;BME280;36839;51.946;21.002;2022-10-20T04:07:28;101185.44;;;0.14;100.00
50867;BME280;36839;51.946;21.002;2022-10-20T04:09:59;101185.44;;;0.14;100.00
50867;BME280;36839;51.946;21.002;2022-10-20T04:12:30;101192.45;;;0.04;100.00
50867;BME280;36839;51.946;21.002;2022-10-20T04:14:56;101189.22;;;0.05;100.00
50867;BME280;36839;51.946;21.002;2022-10-20T04:17:31;101192.13;;;0.03;100.00
50867;BME280;36839;51.946;21.002;2022-10-20T04:19:59;101193.33;;;-0.04;100.00
50867;BME280;36839;51.946;21.002;2022-10-20T04:22:27;101193.33;;;-0.04;100.00
50867;BME280;36839;51.946;21.002;2022-10-20T04:24:55;101198.98;;;-0.13;100.00
50867;BME280;36839;51.946;21.002;2022-10-20T04:27:22;101196.27;;;-0.13;100.00
50867;BME280;36839;51.946;21.002;2022-10-20T04:29:52;101194.73;;;-0.12;100.00
50867;BME280;36839;51.946;21.002;2022-10-20T04:32:19;101204.05;;;-0.10;100.00
50867;BME280;36839;51.946;21.002;2022-10-20T04:34:47;101199.64;;;-0.11;100.00
50867;BME280;36839;51.946;21.002;2022-10-20T04:37:15;101199.50;;;-0.14;100.00
50867;BME280;36839;51.946;21.002;2022-10-20T04:39:44;101199.53;;;-0.18;100.00
50867;BME280;36839;51.946;21.002;2022-10-20T04:42:14;101195.81;;;-0.25;100.00
50867;BME280;36839;51.946;21.002;2022-10-20T04:44:41;101188.03;;;-0.28;100.00
50867;BME280;36839;51.946;21.002;2022-10-20T04:47:08;101194.97;;;-0.30;100.00
50867;BME280;36839;51.946;21.002;2022-10-20T04:49:39;101194.97;;;-0.30;100.00
50867;BME280;36839;51.946;21.002;2022-10-20T04:52:06;101192.22;;;-0.21;100.00
50867;BME280;36839;51.946;21.002;2022-10-20T04:54:34;101195.12;;;-0.23;100.00
50867;BME280;36839;51.946;21.002;2022-10-20T04:57:00;101198.02;;;-0.24;100.00
50867;BME280;36839;51.946;21.002;2022-10-20T04:59:28;101190.23;;;-0.27;100.00
50867;BME280;36839;51.946;21.002;2022-10-20T05:01:58;101195.16;;;-0.31;100.00
50867;BME280;36839;51.946;21.002;2022-10-20T05:04:27;101198.56;;;-0.33;100.00
50867;BME280;36839;51.946;21.002;2022-10-20T05:06:53;101211.31;;;-0.38;100.00
50867;BME280;36839;51.946;21.002;2022-10-20T05:09:21;101199.25;;;-0.39;100.00
50867;BME280;36839;51.946;21.002;2022-10-20T05:11:47;101203.65;;;-0.38;100.00
50867;BME280;36839;51.946;21.002;2022-10-20T05:14:15;101208.42;;;-0.36;100.00
50867;BME280;36839;51.946;21.002;2022-10-20T05:16:42;101205.70;;;-0.36;100.00
50867;BME280;36839;51.946;21.002;2022-10-20T05:19:12;101206.55;;;-0.36;100.00
50867;BME280;36839;51.946;21.002;2022-10-20T05:21:41;101211.47;;;-0.35;100.00
50867;BME280;36839;51.946;21.002;2022-10-20T05:24:11;101208.41;;;-0.40;100.00
50867;BME280;36839;51.946;21.002;2022-10-20T05:26:39;101208.41;;;-0.40;100.00
50867;BME280;36839;51.946;21.002;2022-10-20T05:29:09;101215.72;;;-0.37;100.00
50867;BME280;36839;51.946;21.002;2022-10-20T05:31:40;101226.58;;;-0.37;100.00
50867;BME280;36839;51.946;21.002;2022-10-20T05:34:08;101224.00;;;-0.38;100.00
50867;BME280;36839;51.946;21.002;2022-10-20T05:36:37;101224.00;;;-0.38;100.00
50867;BME280;36839;51.946;21.002;2022-10-20T05:39:11;101224.55;;;-0.43;100.00
50867;BME280;36839;51.946;21.002;2022-10-20T05:41:41;101228.62;;;-0.43;100.00
50867;BME280;36839;51.946;21.002;2022-10-20T05:44:10;101234.55;;;-0.43;100.00
50867;BME280;36839;51.946;21.002;2022-10-20T05:46:38;101224.21;;;-0.44;100.00
50867;BME280;36839;51.946;21.002;2022-10-20T05:49:10;101224.21;;;-0.44;100.00
50867;BME280;36839;51.946;21.002;2022-10-20T05:51:38;101234.84;;;-0.26;100.00
50867;BME280;36839;51.946;21.002;2022-10-20T05:54:09;101234.97;;;-0.19;100.00
50867;BME280;36839;51.946;21.002;2022-10-20T05:56:39;101234.97;;;-0.19;100.00
50867;BME280;36839;51.946;21.002;2022-10-20T05:59:09;101242.25;;;-0.08;100.00
50867;BME280;36839;51.946;21.002;2022-10-20T06:01:37;101248.49;;;-0.03;100.00
50867;BME280;36839;51.946;21.002;2022-10-20T06:04:06;101247.80;;;0.03;100.00
50867;BME280;36839;51.946;21.002;2022-10-20T06:06:34;101251.14;;;0.09;100.00
50867;BME280;36839;51.946;21.002;2022-10-20T06:09:09;101251.14;;;0.09;100.00
50867;BME280;36839;51.946;21.002;2022-10-20T06:11:36;101251.80;;;0.19;100.00
50867;BME280;36839;51.946;21.002;2022-10-20T06:14:08;101262.61;;;0.27;100.00
50867;BME280;36839;51.946;21.002;2022-10-20T06:16:41;101267.86;;;0.33;100.00
50867;BME280;36839;51.946;21.002;2022-10-20T06:19:10;101252.21;;;0.35;100.00
50867;BME280;36839;51.946;21.002;2022-10-20T06:21:37;101266.27;;;0.43;100.00
50867;BME280;36839;51.946;21.002;2022-10-20T06:24:04;101263.84;;;0.52;100.00
50867;BME280;36839;51.946;21.002;2022-10-20T06:26:33;101266.52;;;0.60;100.00
50867;BME280;36839;51.946;21.002;2022-10-20T06:29:03;101266.52;;;0.60;100.00
50867;BME280;36839;51.946;21.002;2022-10-20T06:31:36;101261.30;;;0.77;100.00
50867;BME280;36839;51.946;21.002;2022-10-20T06:34:08;101260.89;;;0.84;100.00
50867;BME280;36839;51.946;21.002;2022-10-20T06:36:36;101268.79;;;0.98;100.00
50867;BME280;36839;51.946;21.002;2022-10-20T06:39:05;101271.27;;;1.08;100.00
50867;BME280;36839;51.946;21.002;2022-10-20T06:41:36;101267.91;;;1.21;100.00
50867;BME280;36839;51.946;21.002;2022-10-20T06:44:07;101276.47;;;1.32;100.00
50867;BME280;36839;51.946;21.002;2022-10-20T06:46:38;101284.36;;;1.46;100.00
50867;BME280;36839;51.946;21.002;2022-10-20T06:49:06;101289.16;;;1.59;100.00
50867;BME280;36839;51.946;21.002;2022-10-20T06:51:36;101289.05;;;1.71;100.00
50867;BME280;36839;51.946;21.002;2022-10-20T06:54:04;101295.20;;;1.84;100.00
50867;BME280;36839;51.946;21.002;2022-10-20T06:56:33;101286.98;;;2.03;100.00
50867;BME280;36839;51.946;21.002;2022-10-20T06:59:04;101293.09;;;2.19;100.00
50867;BME280;36839;51.946;21.002;2022-10-20T07:01:35;101295.16;;;2.43;100.00
50867;BME280;36839;51.946;21.002;2022-10-20T07:04:09;101294.43;;;2.60;100.00
50867;BME280;36839;51.946;21.002;2022-10-20T07:06:38;101294.43;;;2.60;100.00
50867;BME280;36839;51.946;21.002;2022-10-20T07:09:07;101291.16;;;2.85;100.00
50867;BME280;36839;51.946;21.002;2022-10-20T07:11:36;101294.86;;;2.99;100.00
50867;BME280;36839;51.946;21.002;2022-10-20T07:14:09;101293.25;;;3.15;100.00
50867;BME280;36839;51.946;21.002;2022-10-20T07:16:35;101295.44;;;3.27;100.00
50867;BME280;36839;51.946;21.002;2022-10-20T07:19:03;101305.31;;;3.38;100.00
50867;BME280;36839;51.946;21.002;2022-10-20T07:21:38;101305.31;;;3.38;100.00
50867;BME280;36839;51.946;21.002;2022-10-20T07:24:07;101310.09;;;3.58;100.00
50867;BME280;36839;51.946;21.002;2022-10-20T07:26:40;101312.88;;;3.64;100.00
50867;BME280;36839;51.946;21.002;2022-10-20T07:29:07;101314.31;;;3.71;100.00
50867;BME280;36839;51.946;21.002;2022-10-20T07:31:46;101307.51;;;3.78;100.00
50867;BME280;36839;51.946;21.002;2022-10-20T07:34:15;101317.50;;;3.92;100.00
50867;BME280;36839;51.946;21.002;2022-10-20T07:36:43;101321.25;;;4.01;100.00
50867;BME280;36839;51.946;21.002;2022-10-20T07:39:14;101327.31;;;4.14;100.00
50867;BME280;36839;51.946;21.002;2022-10-20T07:41:41;101327.47;;;4.23;100.00
50867;BME280;36839;51.946;21.002;2022-10-20T07:44:14;101321.84;;;4.32;100.00
50867;BME280;36839;51.946;21.002;2022-10-20T07:46:44;101321.84;;;4.32;100.00
50867;BME280;36839;51.946;21.002;2022-10-20T07:49:12;101323.08;;;4.46;100.00
50867;BME280;36839;51.946;21.002;2022-10-20T07:51:38;101323.08;;;4.46;100.00
50867;BME280;36839;51.946;21.002;2022-10-20T07:54:08;101324.25;;;4.54;100.00
50867;BME280;36839;51.946;21.002;2022-10-20T07:56:41;101320.81;;;4.63;100.00
50867;BME280;36839;51.946;21.002;2022-10-20T07:59:11;101324.92;;;4.87;100.00
50867;BME280;36839;51.946;21.002;2022-10-20T08:01:43;101333.05;;;4.98;100.00
50867;BME280;36839;51.946;21.002;2022-10-20T08:04:11;101333.05;;;4.98;100.00
50867;BME280;36839;51.946;21.002;2022-10-20T08:06:38;101326.56;;;5.19;100.00
50867;BME280;36839;51.946;21.002;2022-10-20T08:09:04;101328.16;;;5.30;100.00
50867;BME280;36839;51.946;21.002;2022-10-20T08:11:32;101328.16;;;5.30;100.00
50867;BME280;36839;51.946;21.002;2022-10-20T08:13:58;101330.17;;;5.39;100.00
50867;BME280;36839;51.946;21.002;2022-10-20T08:16:25;101330.17;;;5.39;100.00
50867;BME280;36839;51.946;21.002;2022-10-20T08:18:52;101331.97;;;5.49;100.00
50867;BME280;36839;51.946;21.002;2022-10-20T08:21:20;101335.78;;;5.55;100.00
50867;BME280;36839;51.946;21.002;2022-10-20T08:23:52;101328.40;;;5.55;100.00
50867;BME280;36839;51.946;21.002;2022-10-20T08:26:21;101334.29;;;5.59;100.00
50867;BME280;36839;51.946;21.002;2022-10-20T08:28:51;101332.30;;;5.63;100.00
50867;BME280;36839;51.946;21.002;2022-10-20T08:31:21;101332.72;;;5.73;100.00
50867;BME280;36839;51.946;21.002;2022-10-20T08:33:52;101341.90;;;5.90;100.00
50867;BME280;36839;51.946;21.002;2022-10-20T08:36:23;101336.82;;;6.20;100.00
50867;BME280;36839;51.946;21.002;2022-10-20T08:38:54;101337.12;;;6.27;100.00
50867;BME280;36839;51.946;21.002;2022-10-20T08:41:27;101334.03;;;6.33;100.00
50867;BME280;36839;51.946;21.002;2022-10-20T08:43:55;101334.03;;;6.33;100.00
50867;BME280;36839;51.946;21.002;2022-10-20T08:46:30;101331.19;;;6.37;100.00
50867;BME280;36839;51.946;21.002;2022-10-20T08:48:58;101343.48;;;6.50;100.00
50867;BME280;36839;51.946;21.002;2022-10-20T08:51:30;101343.48;;;6.50;100.00
50867;BME280;36839;51.946;21.002;2022-10-20T08:53:57;101341.66;;;6.60;100.00
50867;BME280;36839;51.946;21.002;2022-10-20T08:56:28;101347.38;;;6.81;100.00
50867;BME280;36839;51.946;21.002;2022-10-20T08:59:00;101341.02;;;6.87;100.00
50867;BME280;36839;51.946;21.002;2022-10-20T09:01:32;101341.02;;;6.87;100.00
50867;BME280;36839;51.946;21.002;2022-10-20T09:04:13;101335.38;;;6.91;100.00
50867;BME280;36839;51.946;21.002;2022-10-20T09:06:40;101332.22;;;6.94;100.00
50867;BME280;36839;51.946;21.002;2022-10-20T09:09:14;101338.19;;;7.00;100.00
50867;BME280;36839;51.946;21.002;2022-10-20T09:11:44;101338.19;;;7.00;100.00
50867;BME280;36839;51.946;21.002;2022-10-20T09:14:14;101338.41;;;7.21;100.00
50867;BME280;36839;51.946;21.002;2022-10-20T09:16:50;101333.05;;;7.33;100.00
50867;BME280;36839;51.946;21.002;2022-10-20T09:19:19;101335.75;;;7.39;100.00
50867;BME280;36839;51.946;21.002;2022-10-20T09:21:55;101332.71;;;7.48;100.00
50867;BME280;36839;51.946;21.002;2022-10-20T09:24:26;101326.17;;;7.49;100.00
50867;BME280;36839;51.946;21.002;2022-10-20T09:26:55;101333.39;;;7.59;100.00
50867;BME280;36839;51.946;21.002;2022-10-20T09:29:36;101333.39;;;7.59;100.00
50867;BME280;36839;51.946;21.002;2022-10-20T09:32:02;101328.18;;;7.85;100.00
50867;BME280;36839;51.946;21.002;2022-10-20T09:34:33;101323.95;;;7.98;100.00
50867;BME280;36839;51.946;21.002;2022-10-20T09:37:09;101324.95;;;8.13;100.00
50867;BME280;36839;51.946;21.002;2022-10-20T09:39:39;101332.05;;;8.36;100.00
50867;BME280;36839;51.946;21.002;2022-10-20T09:42:03;101332.06;;;8.54;99.62
50867;BME280;36839;51.946;21.002;2022-10-20T09:44:37;101332.06;;;8.54;99.62
50867;BME280;36839;51.946;21.002;2022-10-20T09:47:03;101328.10;;;8.90;100.00
50867;BME280;36839;51.946;21.002;2022-10-20T09:49:36;101324.49;;;8.98;100.00
50867;BME280;36839;51.946;21.002;2022-10-20T09:52:22;101324.49;;;8.98;100.00
50867;BME280;36839;51.946;21.002;2022-10-20T09:54:55;101329.97;;;8.77;94.45
50867;BME280;36839;51.946;21.002;2022-10-20T09:57:22;101328.83;;;8.67;95.23
50867;BME280;36839;51.946;21.002;2022-10-20T09:59:52;101326.75;;;8.62;91.94
50867;BME280;36839;51.946;21.002;2022-10-20T10:04:53;101324.77;;;8.60;90.83
50867;BME280;36839;51.946;21.002;2022-10-20T10:12:28;101314.28;;;8.69;92.75
50867;BME280;36839;51.946;21.002;2022-10-20T10:14:58;101316.12;;;8.84;93.09
50867;BME280;36839;51.946;21.002;2022-10-20T10:17:40;101315.94;;;8.88;91.33
50867;BME280;36839;51.946;21.002;2022-10-20T10:22:43;101318.59;;;9.04;91.53
50867;BME280;36839;51.946;21.002;2022-10-20T10:25:17;101320.79;;;9.13;90.52
50867;BME280;36839;51.946;21.002;2022-10-20T10:27:59;101319.98;;;9.25;91.72
50867;BME280;36839;51.946;21.002;2022-10-20T10:30:33;101313.84;;;9.32;90.17
50867;BME280;36839;51.946;21.002;2022-10-20T10:33:25;101313.84;;;9.32;90.17
50867;BME280;36839;51.946;21.002;2022-10-20T10:35:58;101315.13;;;9.38;88.21
50867;BME280;36839;51.946;21.002;2022-10-20T10:38:38;101315.13;;;9.38;88.21
50867;BME280;36839;51.946;21.002;2022-10-20T10:41:18;101314.50;;;9.36;86.63
50867;BME280;36839;51.946;21.002;2022-10-20T10:52:41;101305.05;;;9.44;84.51
50867;BME280;36839;51.946;21.002;2022-10-20T10:55:26;101305.05;;;9.44;84.51
50867;BME280;36839;51.946;21.002;2022-10-20T11:01:08;101291.73;;;9.29;81.64
50867;BME280;36839;51.946;21.002;2022-10-20T11:03:44;101289.42;;;9.26;81.22
50867;BME280;36839;51.946;21.002;2022-10-20T11:12:10;101280.03;;;9.36;80.53
50867;BME280;36839;51.946;21.002;2022-10-20T11:14:41;101281.86;;;9.42;76.92
50867;BME280;36839;51.946;21.002;2022-10-20T11:17:31;101281.86;;;9.42;76.92
50867;BME280;36839;51.946;21.002;2022-10-20T11:25:32;101263.67;;;9.88;79.84
50867;BME280;36839;51.946;21.002;2022-10-20T11:28:05;101265.53;;;9.97;79.50
50867;BME280;36839;51.946;21.002;2022-10-20T11:30:35;101265.53;;;9.97;79.50
50867;BME280;36839;51.946;21.002;2022-10-20T11:33:15;101252.52;;;9.95;75.58
50867;BME280;36839;51.946;21.002;2022-10-20T11:35:43;101250.35;;;9.97;75.21
50867;BME280;36839;51.946;21.002;2022-10-20T11:44:53;101239.92;;;9.87;73.97
50867;BME280;36839;51.946;21.002;2022-10-20T11:46:43;101239.92;;;9.87;73.97
50867;BME280;36839;51.946;21.002;2022-10-20T11:49:09;101236.26;;;9.96;74.34
50867;BME280;36839;51.946;21.002;2022-10-20T11:54:29;101240.08;;;10.07;76.56
50867;BME280;36839;51.946;21.002;2022-10-20T11:59:51;101233.70;;;10.18;76.19
50867;BME280;36839;51.946;21.002;2022-10-20T12:02:45;101229.06;;;10.21;73.40
50867;BME280;36839;51.946;21.002;2022-10-20T12:08:06;101235.12;;;10.32;73.46
50867;BME280;36839;51.946;21.002;2022-10-20T12:10:42;101223.78;;;10.31;73.05
50867;BME280;36839;51.946;21.002;2022-10-20T12:15:51;101220.51;;;10.46;72.55
50867;BME280;36839;51.946;21.002;2022-10-20T12:18:30;101211.59;;;10.55;73.35
50867;BME280;36839;51.946;21.002;2022-10-20T12:21:05;101211.45;;;10.62;72.54
50867;BME280;36839;51.946;21.002;2022-10-20T12:26:37;101209.97;;;10.71;70.50
50867;BME280;36839;51.946;21.002;2022-10-20T12:35:02;101211.36;;;10.71;68.78
50867;BME280;36839;51.946;21.002;2022-10-20T12:37:36;101208.14;;;10.63;71.78
50867;BME280;36839;51.946;21.002;2022-10-20T12:42:39;101208.78;;;10.53;70.13
50867;BME280;36839;51.946;21.002;2022-10-20T12:45:22;101202.78;;;10.30;68.61
50867;BME280;36839;51.946;21.002;2022-10-20T12:47:38;101194.33;;;10.22;70.31
50867;BME280;36839;51.946;21.002;2022-10-20T12:50:32;101199.44;;;10.16;71.97
50867;BME280;36839;51.946;21.002;2022-10-20T12:52:41;101195.67;;;10.08;72.79
50867;BME280;36839;51.946;21.002;2022-10-20T12:55:20;101193.28;;;10.00;72.88
50867;BME280;36839;51.946;21.002;2022-10-20T12:57:48;101189.52;;;9.92;73.67
50867;BME280;36839;51.946;21.002;2022-10-20T13:05:42;101189.13;;;9.62;78.42
50867;BME280;36839;51.946;21.002;2022-10-20T13:10:47;101198.89;;;9.56;80.57
50867;BME280;36839;51.946;21.002;2022-10-20T13:15:52;101191.65;;;9.40;84.39
50867;BME280;36839;51.946;21.002;2022-10-20T13:18:24;101190.13;;;9.35;84.96
50867;BME280;36839;51.946;21.002;2022-10-20T13:26:08;101183.72;;;9.21;84.67
50867;BME280;36839;51.946;21.002;2022-10-20T13:28:29;101183.72;;;9.21;84.67
50867;BME280;36839;51.946;21.002;2022-10-20T13:33:58;101181.36;;;9.15;86.36
50867;BME280;36839;51.946;21.002;2022-10-20T13:39:29;101183.77;;;9.11;86.61
50867;BME280;36839;51.946;21.002;2022-10-20T13:42:04;101183.72;;;9.00;87.96
50867;BME280;36839;51.946;21.002;2022-10-20T13:47:39;101183.42;;;8.99;88.36
50867;BME280;36839;51.946;21.002;2022-10-20T13:50:10;101170.91;;;8.94;89.38
50867;BME280;36839;51.946;21.002;2022-10-20T13:52:44;101170.91;;;8.94;89.38
50867;BME280;36839;51.946;21.002;2022-10-20T13:55:23;101172.53;;;8.92;89.01
50867;BME280;36839;51.946;21.002;2022-10-20T13:57:54;101172.14;;;8.88;89.57
50867;BME280;36839;51.946;21.002;2022-10-20T14:00:28;101172.14;;;8.88;90.53
50867;BME280;36839;51.946;21.002;2022-10-20T14:03:13;101164.12;;;8.87;90.28
50867;BME280;36839;51.946;21.002;2022-10-20T14:05:40;101165.38;;;8.82;90.52
50867;BME280;36839;51.946;21.002;2022-10-20T14:08:07;101163.47;;;8.82;90.59
50867;BME280;36839;51.946;21.002;2022-10-20T14:13:12;101157.95;;;8.82;91.00
50867;BME280;36839;51.946;21.002;2022-10-20T14:15:37;101155.80;;;8.84;91.34
50867;BME280;36839;51.946;21.002;2022-10-20T14:18:16;101158.07;;;8.87;92.02
50867;BME280;36839;51.946;21.002;2022-10-20T14:20:35;101152.86;;;8.88;91.52
50867;BME280;36839;51.946;21.002;2022-10-20T14:23:03;101157.59;;;8.91;91.21
50867;BME280;36839;51.946;21.002;2022-10-20T14:25:32;101157.59;;;8.91;91.21
50867;BME280;36839;51.946;21.002;2022-10-20T14:28:00;101148.48;;;8.90;91.54
50867;BME280;36839;51.946;21.002;2022-10-20T14:30:29;101155.73;;;8.82;90.33
50867;BME280;36839;51.946;21.002;2022-10-20T14:32:59;101152.06;;;8.79;90.51
50867;BME280;36839;51.946;21.002;2022-10-20T14:35:37;101148.41;;;8.76;91.00
50867;BME280;36839;51.946;21.002;2022-10-20T14:38:02;101142.84;;;8.73;91.04
50867;BME280;36839;51.946;21.002;2022-10-20T14:40:35;101140.23;;;8.69;91.44
50867;BME280;36839;51.946;21.002;2022-10-20T14:43:06;101137.07;;;8.63;91.33
50867;BME280;36839;51.946;21.002;2022-10-20T14:45:33;101137.07;;;8.63;91.33
50867;BME280;36839;51.946;21.002;2022-10-20T14:48:02;101134.80;;;8.51;93.17